Time;durP1;ratioP1;P1;durP2;ratioP2;P2;SDS_P1;SDS_P2;PMS_P1;PMS_P2;Temp;Humidity;BMP_temperature;BMP_pressure;BME280_temperature;BME280_humidity;BME280_pressure;Samples;Min_cycle;Max_cycle;Signal;HPM_P1;HPM_P2
2023/08/02 00:05:01;;;;;;;1.20;0.60;;;;;;;14.79;100.00;97318.38;15286566;19;20014;-52
2023/08/02 00:10:26;;;;;;;3.25;0.75;;;;;;;14.83;100.00;97316.03;15289493;19;20017;-53
2023/08/02 00:16:00;;;;;;;1.88;0.70;;;;;;;14.83;100.00;97317.94;15289638;19;20018;-49
2023/08/02 00:21:25;;;;;;;1.98;0.88;;;;;;;14.82;100.00;97318.97;15294457;19;20078;-52
2023/08/02 00:26:49;;;;;;;1.55;0.70;;;;;;;14.78;100.00;97311.28;15295576;19;20018;-47
2023/08/02 00:32:17;;;;;;;3.10;0.70;;;;;;;14.77;100.00;97319.63;15294595;19;20014;-50
2023/08/02 00:37:42;;;;;;;1.48;0.70;;;;;;;14.75;100.00;97319.00;15291269;19;20170;-50
2023/08/02 00:43:07;;;;;;;2.25;0.68;;;;;;;14.71;100.00;97315.06;15286261;19;20029;-51
2023/08/02 00:48:48;;;;;;;1.02;0.60;;;;;;;14.70;100.00;97308.00;15289277;19;20379;-52
2023/08/02 00:54:13;;;;;;;1.73;0.63;;;;;;;14.65;100.00;97311.28;15284130;19;20014;-49
2023/08/02 00:59:37;;;;;;;1.50;0.70;;;;;;;14.61;100.00;97321.75;15286512;19;20408;-49
2023/08/02 01:05:05;;;;;;;3.15;0.75;;;;;;;14.58;100.00;97314.03;15285343;19;20472;-53
2023/08/02 01:10:38;;;;;;;2.50;0.77;;;;;;;14.57;100.00;97308.84;15285080;19;20018;-48
2023/08/02 01:16:10;;;;;;;3.30;0.90;;;;;;;14.54;100.00;97311.97;15285728;19;20031;-48
2023/08/02 01:21:38;;;;;;;2.42;0.90;;;;;;;14.52;100.00;97317.63;15285432;19;20118;-48
2023/08/02 01:27:03;;;;;;;2.17;0.80;;;;;;;14.53;100.00;97307.59;15292660;19;20501;-52
2023/08/02 01:32:28;;;;;;;2.45;0.80;;;;;;;14.48;100.00;97309.09;15292200;19;20035;-48
2023/08/02 01:37:55;;;;;;;1.90;0.70;;;;;;;14.40;100.00;97306.63;15290804;19;20034;-50
2023/08/02 01:43:21;;;;;;;1.85;0.70;;;;;;;14.31;100.00;97310.59;15286500;19;20081;-52
2023/08/02 01:48:45;;;;;;;1.45;0.70;;;;;;;14.23;100.00;97305.41;15284749;19;20019;-52
2023/08/02 01:54:13;;;;;;;1.50;0.70;;;;;;;14.12;100.00;97306.88;15280416;19;20019;-51
2023/08/02 01:59:37;;;;;;;1.35;0.70;;;;;;;14.05;100.00;97297.94;15285168;19;20353;-48
2023/08/02 02:05:02;;;;;;;1.88;0.80;;;;;;;14.00;100.00;97293.16;15280980;19;20389;-48
2023/08/02 02:10:29;;;;;;;2.15;0.68;;;;;;;13.98;100.00;97285.25;15284535;19;20029;-47
2023/08/02 02:16:00;;;;;;;1.95;0.80;;;;;;;13.96;100.00;97286.50;15262258;19;20026;-55
2023/08/02 02:21:25;;;;;;;1.52;0.60;;;;;;;13.97;100.00;97274.63;15289926;19;20022;-51
2023/08/02 02:26:52;;;;;;;2.58;0.80;;;;;;;13.97;100.00;97259.22;15295528;19;20011;-50
2023/08/02 02:32:18;;;;;;;1.60;0.60;;;;;;;13.99;100.00;97253.59;15304128;19;20018;-53
2023/08/02 02:37:42;;;;;;;1.70;0.68;;;;;;;13.99;100.00;97261.72;15304837;19;20021;-52
2023/08/02 02:43:10;;;;;;;3.00;0.82;;;;;;;14.00;100.00;97260.66;15297454;19;20014;-52
2023/08/02 02:48:34;;;;;;;3.90;0.70;;;;;;;14.00;100.00;97239.81;15299744;19;20031;-54
2023/08/02 02:53:59;;;;;;;1.75;0.75;;;;;;;14.01;100.00;97238.78;15289801;19;20014;-49
2023/08/02 02:59:26;;;;;;;2.25;0.85;;;;;;;14.03;100.00;97234.00;15286039;19;20089;-50
2023/08/02 03:04:51;;;;;;;2.25;0.70;;;;;;;14.05;100.00;97228.38;15291530;19;20457;-52
2023/08/02 03:10:17;;;;;;;1.67;0.80;;;;;;;14.10;100.00;97230.44;15292051;19;20029;-48
2023/08/02 03:15:52;;;;;;;2.58;0.70;;;;;;;14.17;100.00;97237.47;15289868;19;20022;-52
2023/08/02 03:21:17;;;;;;;2.30;0.90;;;;;;;14.21;100.00;97229.78;15284494;19;20414;-51
2023/08/02 03:26:41;;;;;;;1.27;0.63;;;;;;;14.23;100.00;97234.97;15296710;19;20084;-52
2023/08/02 03:32:10;;;;;;;3.70;0.80;;;;;;;14.21;100.00;97247.91;15295241;19;20457;-51
2023/08/02 03:37:34;;;;;;;4.10;0.90;;;;;;;14.15;100.00;97274.81;15293650;19;20471;-51
2023/08/02 03:42:59;;;;;;;1.83;0.80;;;;;;;14.08;100.00;97273.97;15290885;19;20025;-53
2023/08/02 03:48:28;;;;;;;4.30;1.00;;;;;;;14.05;100.00;97266.28;15298276;19;20480;-51
2023/08/02 03:53:53;;;;;;;3.03;1.00;;;;;;;14.03;100.00;97268.38;15283433;19;20021;-50
2023/08/02 03:59:17;;;;;;;2.22;0.80;;;;;;;14.00;100.00;97276.91;15285678;19;20014;-55
2023/08/02 04:04:45;;;;;;;2.35;1.00;;;;;;;13.99;100.00;97288.78;15292503;19;20094;-54
2023/08/02 04:10:09;;;;;;;2.00;0.80;;;;;;;14.00;100.00;97276.91;15288378;19;20358;-53
2023/08/02 04:15:36;;;;;;;2.30;0.80;;;;;;;14.01;100.00;97270.47;15288167;19;20082;-54
2023/08/02 04:21:03;;;;;;;2.40;0.90;;;;;;;14.01;100.00;97290.22;15287832;19;20054;-52
2023/08/02 04:26:28;;;;;;;2.03;0.90;;;;;;;14.05;100.00;97277.13;15286620;19;20074;-53
2023/08/02 04:31:52;;;;;;;2.67;0.90;;;;;;;14.10;100.00;97258.34;15290714;19;20523;-54
2023/08/02 04:37:20;;;;;;;1.73;0.95;;;;;;;14.20;100.00;97251.66;15291570;19;20029;-53
2023/08/02 04:42:47;;;;;;;2.85;0.93;;;;;;;14.30;100.00;97224.94;15285254;19;20010;-55
2023/08/02 04:48:12;;;;;;;3.15;1.00;;;;;;;14.43;100.00;97227.59;15293827;19;20019;-52
2023/08/02 04:53:40;;;;;;;2.90;0.90;;;;;;;14.53;100.00;97226.28;15285235;19;20088;-52
2023/08/02 04:59:05;;;;;;;1.88;0.90;;;;;;;14.59;100.00;97230.88;15282944;19;20018;-49
2023/08/02 05:04:29;;;;;;;3.17;1.00;;;;;;;14.68;100.00;97232.28;15289658;19;20078;-53
2023/08/02 05:09:57;;;;;;;3.35;0.98;;;;;;;14.73;100.00;97210.81;15285388;19;20014;-50
2023/08/02 05:15:21;;;;;;;1.65;0.95;;;;;;;14.84;100.00;97194.88;15289888;19;20022;-54
2023/08/02 05:20:46;;;;;;;1.95;0.90;;;;;;;14.91;100.00;97195.66;15283987;19;20021;-52
2023/08/02 05:26:15;;;;;;;1.85;0.90;;;;;;;15.00;100.00;97199.75;15285555;19;20022;-51
2023/08/02 05:31:40;;;;;;;2.58;1.02;;;;;;;15.08;100.00;97204.09;15282631;19;20347;-52
2023/08/02 05:37:04;;;;;;;1.52;1.00;;;;;;;15.18;100.00;97195.47;15287933;19;20018;-54
2023/08/02 05:42:32;;;;;;;2.00;0.98;;;;;;;15.27;100.00;97194.13;15286248;19;20897;-51
2023/08/02 05:47:58;;;;;;;1.30;0.90;;;;;;;15.40;100.00;97199.44;15289204;19;20011;-51
2023/08/02 05:53:23;;;;;;;1.50;0.82;;;;;;;15.53;100.00;97176.75;15280142;19;20401;-52
2023/08/02 05:58:51;;;;;;;2.85;0.90;;;;;;;15.62;100.00;97158.31;15292051;19;20021;-52
2023/08/02 06:04:16;;;;;;;1.35;0.80;;;;;;;15.71;100.00;97145.28;15290444;19;20018;-52
2023/08/02 06:09:41;;;;;;;2.70;0.80;;;;;;;15.83;100.00;97142.63;15297066;19;20018;-56
2023/08/02 06:15:10;;;;;;;2.60;1.00;;;;;;;15.97;100.00;97149.59;15292220;19;20040;-52
2023/08/02 06:20:34;;;;;;;3.65;0.90;;;;;;;16.13;100.00;97120.16;15294681;19;20014;-52
2023/08/02 06:26:00;;;;;;;1.45;0.90;;;;;;;16.26;100.00;97090.09;15294156;19;20024;-51
2023/08/02 06:31:28;;;;;;;1.98;0.90;;;;;;;16.37;100.00;97071.34;15300206;19;20018;-51
2023/08/02 06:36:52;;;;;;;1.88;0.93;;;;;;;16.48;100.00;97082.22;15294569;19;20018;-53
2023/08/02 06:42:17;;;;;;;2.20;1.00;;;;;;;16.62;100.00;97074.72;15293108;19;20700;-51
2023/08/02 06:47:44;;;;;;;1.75;0.80;;;;;;;16.70;100.00;97065.34;15302073;19;20018;-51
2023/08/02 06:53:09;;;;;;;2.17;0.90;;;;;;;16.82;100.00;97054.50;15297362;19;20073;-54
2023/08/02 06:58:33;;;;;;;3.17;0.90;;;;;;;16.92;100.00;97057.47;15299534;19;20017;-55
2023/08/02 07:04:03;;;;;;;3.22;1.20;;;;;;;17.01;100.00;97043.53;15290766;19;20018;-53
2023/08/02 07:09:29;;;;;;;2.25;0.80;;;;;;;17.10;100.00;97031.25;15286745;19;20015;-54
2023/08/02 07:15:01;;;;;;;2.70;1.05;;;;;;;17.22;100.00;97023.06;15230194;19;20501;-54
2023/08/02 07:20:28;;;;;;;1.75;1.00;;;;;;;17.30;100.00;97011.81;15292643;19;20383;-54
2023/08/02 07:25:54;;;;;;;1.77;0.88;;;;;;;17.43;100.00;97013.44;15290023;19;20531;-51
2023/08/02 07:31:19;;;;;;;3.47;1.02;;;;;;;17.43;100.00;97010.72;15295355;19;20021;-53
2023/08/02 07:36:46;;;;;;;2.03;1.00;;;;;;;17.46;100.00;97002.09;15294546;19;20022;-51
2023/08/02 07:42:11;;;;;;;2.53;1.05;;;;;;;17.48;100.00;97002.66;15292309;19;20021;-52
2023/08/02 07:47:35;;;;;;;2.42;0.93;;;;;;;17.48;100.00;97004.56;15298044;19;20018;-51
2023/08/02 07:53:04;;;;;;;2.40;0.90;;;;;;;17.47;100.00;97011.88;15296567;19;20490;-53
2023/08/02 07:58:29;;;;;;;2.25;1.10;;;;;;;17.56;100.00;97012.34;15296996;19;20078;-52
2023/08/02 08:03:53;;;;;;;4.28;1.33;;;;;;;17.67;100.00;96989.69;15287020;19;20018;-54
2023/08/02 08:09:24;;;;;;;2.58;1.00;;;;;;;17.79;100.00;96967.03;15289499;19;20018;-55
2023/08/02 08:14:48;;;;;;;2.20;1.17;;;;;;;17.89;100.00;96955.50;15288893;19;20017;-52
2023/08/02 08:20:15;;;;;;;5.82;1.10;;;;;;;17.88;100.00;96960.09;15288629;19;20569;-53
2023/08/02 08:25:42;;;;;;;1.83;0.90;;;;;;;17.93;100.00;96949.31;15283985;19;20038;-52
2023/08/02 08:31:08;;;;;;;2.58;1.00;;;;;;;18.01;100.00;96943.50;15291571;19;20046;-51
2023/08/02 08:36:32;;;;;;;2.25;0.95;;;;;;;18.10;100.00;96940.38;15290410;19;20015;-54
2023/08/02 08:42:00;;;;;;;1.83;0.82;;;;;;;18.24;100.00;96927.25;15285714;19;20031;-53
2023/08/02 08:47:26;;;;;;;2.50;1.00;;;;;;;18.36;100.00;96938.91;15287450;19;20105;-51
2023/08/02 08:52:55;;;;;;;1.50;0.80;;;;;;;18.47;100.00;96924.34;15292913;19;20471;-52
2023/08/02 08:58:22;;;;;;;2.15;0.95;;;;;;;18.60;100.00;96911.44;15292460;19;20022;-50
2023/08/02 09:03:47;;;;;;;2.70;0.90;;;;;;;18.69;100.00;96900.94;15280589;19;20026;-53
2023/08/02 09:09:11;;;;;;;1.67;1.00;;;;;;;18.71;100.00;96891.41;15282790;19;20011;-52
2023/08/02 09:14:46;;;;;;;2.00;0.95;;;;;;;18.76;100.00;96882.47;15282617;19;20018;-51
2023/08/02 09:20:12;;;;;;;2.80;1.75;;;;;;;18.79;100.00;96890.97;15288156;19;20758;-56
2023/08/02 09:25:38;;;;;;;1.73;0.93;;;;;;;18.73;100.00;96882.97;15284950;19;20029;-53
2023/08/02 09:31:16;;;;;;;1.50;0.88;;;;;;;18.68;100.00;96891.91;15287503;19;20116;-52
2023/08/02 09:36:42;;;;;;;1.48;0.90;;;;;;;18.68;100.00;96883.72;15311651;19;20357;-52
2023/08/02 09:42:11;;;;;;;1.65;1.08;;;;;;;18.60;100.00;96884.16;15311553;19;20085;-50
2023/08/02 09:47:39;;;;;;;1.45;0.90;;;;;;;18.58;100.00;96886.31;15314109;19;20016;-55
2023/08/02 09:53:18;;;;;;;1.77;1.00;;;;;;;18.50;100.00;96875.84;15322221;19;20090;-53
2023/08/02 09:58:47;;;;;;;1.90;1.00;;;;;;;18.51;100.00;96861.13;15318915;19;20094;-51
2023/08/02 10:04:17;;;;;;;1.45;0.82;;;;;;;18.57;100.00;96843.75;15308822;19;20014;-53
2023/08/02 10:09:44;;;;;;;2.88;0.80;;;;;;;18.62;100.00;96822.03;15311056;19;20343;-54
2023/08/02 10:15:17;;;;;;;2.08;0.80;;;;;;;18.56;100.00;96812.09;15308804;19;20082;-53
2023/08/02 10:20:44;;;;;;;1.38;0.93;;;;;;;18.64;100.00;96811.66;15304254;19;20085;-54
2023/08/02 10:26:09;;;;;;;1.60;0.90;;;;;;;18.75;100.00;96799.81;15310656;19;20089;-53
2023/08/02 10:31:33;;;;;;;1.90;0.70;;;;;;;18.78;100.00;96772.03;15314658;19;20014;-54
2023/08/02 10:37:06;;;;;;;1.30;0.80;;;;;;;18.80;100.00;96774.50;15315043;19;20035;-50
2023/08/02 10:42:31;;;;;;;1.38;0.80;;;;;;;18.79;100.00;96757.31;15307781;19;20496;-51
2023/08/02 10:47:56;;;;;;;2.47;0.85;;;;;;;18.92;100.00;96747.91;15303637;19;20042;-52
2023/08/02 10:53:23;;;;;;;1.55;0.80;;;;;;;19.05;100.00;96738.50;15294681;19;20405;-54
2023/08/02 10:58:59;;;;;;;1.50;0.85;;;;;;;19.13;100.00;96731.78;15301174;19;20027;-55
2023/08/02 11:04:24;;;;;;;1.55;0.80;;;;;;;19.11;100.00;96714.00;15293318;19;20015;-56
2023/08/02 11:09:54;;;;;;;1.27;0.77;;;;;;;19.05;100.00;96715.88;15295560;19;20353;-54
2023/08/02 11:15:19;;;;;;;1.30;0.70;;;;;;;19.04;100.00;96695.94;15289702;19;20025;-51
2023/08/02 11:20:45;;;;;;;2.55;0.80;;;;;;;19.09;100.00;96679.63;15292818;19;20015;-54
2023/08/02 11:26:15;;;;;;;1.58;0.60;;;;;;;19.01;100.00;96676.53;15287179;19;20042;-53
2023/08/02 11:31:39;;;;;;;0.52;0.47;;;;;;;18.92;100.00;96663.34;15295712;19;20025;-52
2023/08/02 11:37:06;;;;;;;0.65;0.60;;;;;;;18.86;100.00;96664.34;15297530;19;20014;-54
2023/08/02 11:42:34;;;;;;;1.30;0.57;;;;;;;18.90;100.00;96648.28;15288615;19;20020;-51
2023/08/02 11:47:59;;;;;;;1.35;0.30;;;;;;;18.91;100.00;96637.13;15299354;19;20531;-53
2023/08/02 11:53:29;;;;;;;0.43;0.43;;;;;;;18.86;100.00;96647.16;15297041;19;20022;-51
2023/08/02 11:58:57;;;;;;;0.95;0.30;;;;;;;18.73;100.00;96646.50;15291780;19;20014;-52
2023/08/02 12:04:21;;;;;;;0.40;0.40;;;;;;;18.77;100.00;96631.25;15291935;19;20432;-54
2023/08/02 12:09:48;;;;;;;1.05;0.60;;;;;;;18.64;100.00;96615.28;15287304;19;20026;-53
2023/08/02 12:15:15;;;;;;;0.50;0.40;;;;;;;18.59;100.00;96607.88;15286436;19;20089;-55
2023/08/02 12:20:48;;;;;;;0.40;0.40;;;;;;;18.62;100.00;96603.84;15284581;19;20015;-54
2023/08/02 12:26:12;;;;;;;0.85;0.40;;;;;;;18.59;100.00;96615.25;15288303;19;20479;-55
2023/08/02 12:31:49;;;;;;;1.45;0.43;;;;;;;18.58;100.00;96613.63;15287919;19;20018;-56
2023/08/02 12:37:13;;;;;;;0.55;0.35;;;;;;;18.45;100.00;96602.03;15292187;19;20547;-52
2023/08/02 12:42:38;;;;;;;0.47;0.40;;;;;;;18.38;100.00;96568.72;15281978;19;20494;-52
2023/08/02 12:48:22;;;;;;;0.30;0.30;;;;;;;18.45;100.00;96593.03;15293092;19;20475;-53
2023/08/02 12:53:47;;;;;;;0.52;0.30;;;;;;;18.45;100.00;96565.78;15287178;19;20029;-50
2023/08/02 12:59:12;;;;;;;0.93;0.20;;;;;;;18.38;100.00;96552.34;15283367;19;20039;-52
2023/08/02 13:04:39;;;;;;;0.25;0.20;;;;;;;18.41;100.00;96565.44;15285748;19;20020;-50
2023/08/02 13:10:14;;;;;;;1.27;0.30;;;;;;;18.38;100.00;96546.91;15282413;19;20022;-50
2023/08/02 13:15:39;;;;;;;0.40;0.40;;;;;;;18.39;100.00;96543.09;15284721;19;20025;-52
2023/08/02 13:21:06;;;;;;;0.40;0.30;;;;;;;18.40;100.00;96536.56;15281496;19;20409;-51
2023/08/02 13:26:31;;;;;;;0.70;0.30;;;;;;;18.33;100.00;96522.31;15291781;19;20355;-54
2023/08/02 13:31:55;;;;;;;0.47;0.30;;;;;;;18.28;100.00;96522.28;15293545;19;20029;-54
2023/08/02 13:37:23;;;;;;;0.35;0.28;;;;;;;18.21;100.00;96535.28;15286150;19;20356;-51
2023/08/02 13:42:48;;;;;;;0.20;0.20;;;;;;;18.14;100.00;96547.22;15278849;19;20017;-56
2023/08/02 13:48:13;;;;;;;0.40;0.30;;;;;;;18.00;100.00;96556.84;15291651;19;20384;-51
2023/08/02 13:53:40;;;;;;;0.73;0.30;;;;;;;17.90;100.00;96554.78;15281236;19;20613;-52
2023/08/02 13:59:05;;;;;;;0.93;0.40;;;;;;;17.81;100.00;96546.28;15291383;19;20017;-52
2023/08/02 14:04:30;;;;;;;1.10;0.38;;;;;;;17.73;100.00;96576.66;15281998;19;20641;-50
2023/08/02 14:09:57;;;;;;;0.40;0.30;;;;;;;17.67;100.00;96610.34;15286546;19;20054;-53
2023/08/02 14:15:22;;;;;;;0.32;0.32;;;;;;;17.60;100.00;96604.25;15279827;19;20038;-51
2023/08/02 14:20:46;;;;;;;0.50;0.30;;;;;;;17.52;100.00;96594.63;15281720;19;20018;-55
2023/08/02 14:26:13;;;;;;;0.28;0.28;;;;;;;17.49;100.00;96592.41;15299856;19;20025;-55
2023/08/02 14:31:38;;;;;;;0.68;0.43;;;;;;;17.54;100.00;96606.91;15295207;19;20358;-51
2023/08/02 14:37:02;;;;;;;0.20;0.20;;;;;;;17.65;100.00;96602.41;15299664;19;20082;-53
2023/08/02 14:42:30;;;;;;;0.20;0.20;;;;;;;17.72;100.00;96569.56;15296096;19;20472;-53
2023/08/02 14:47:55;;;;;;;0.25;0.20;;;;;;;17.76;100.00;96524.41;15301409;19;20021;-52
2023/08/02 14:53:19;;;;;;;0.25;0.25;;;;;;;17.91;100.00;96553.72;15299636;19;20375;-54
2023/08/02 14:58:46;;;;;;;0.35;0.20;;;;;;;18.04;100.00;96587.13;15301224;19;20021;-51
2023/08/02 15:04:12;;;;;;;0.40;0.20;;;;;;;18.08;100.00;96580.91;15290221;19;20024;-51
2023/08/02 15:09:37;;;;;;;0.30;0.15;;;;;;;18.17;100.00;96579.38;15292691;19;20014;-52
2023/08/02 15:15:04;;;;;;;0.35;0.20;;;;;;;18.27;100.00;96566.97;15296331;19;20477;-55
2023/08/02 15:20:30;;;;;;;0.15;0.13;;;;;;;18.43;100.00;96552.38;15292063;19;20011;-53
2023/08/02 15:25:55;;;;;;;0.17;0.10;;;;;;;18.75;100.00;96557.06;15291450;19;20539;-54
2023/08/02 15:31:24;;;;;;;0.60;0.10;;;;;;;19.59;100.00;96522.94;15299900;19;20089;-58
2023/08/02 15:36:50;;;;;;;0.30;0.10;;;;;;;20.22;100.00;96429.94;15296093;19;20042;-53
2023/08/02 15:42:16;;;;;;;1.52;0.13;;;;;;;20.86;100.00;96389.44;15281670;19;20816;-52
2023/08/02 15:47:43;;;;;;;0.45;0.10;;;;;;;21.19;100.00;96356.19;15298624;19;20082;-55
2023/08/02 15:53:08;;;;;;;0.10;0.10;;;;;;;21.24;100.00;96369.84;15295398;19;20483;-52
2023/08/02 15:58:32;;;;;;;0.00;0.00;;;;;;;21.32;100.00;96354.75;15297865;19;20020;-54
2023/08/02 16:03:59;;;;;;;0.43;0.10;;;;;;;21.18;100.00;96363.59;15286183;19;20097;-54
2023/08/02 16:09:24;;;;;;;0.20;0.17;;;;;;;21.23;100.00;96341.63;15288343;19;20026;-53
2023/08/02 16:14:49;;;;;;;0.10;0.10;;;;;;;20.96;100.00;96333.81;15281620;19;20087;-51
2023/08/02 16:20:17;;;;;;;0.15;0.15;;;;;;;20.66;100.00;96319.13;15296138;19;20015;-53
2023/08/02 16:25:42;;;;;;;1.23;0.20;;;;;;;20.49;100.00;96322.19;15286796;19;20090;-51
2023/08/02 16:31:06;;;;;;;0.65;0.15;;;;;;;20.35;100.00;96327.41;15291384;19;20021;-51
2023/08/02 16:36:33;;;;;;;0.10;0.10;;;;;;;20.10;100.00;96331.81;15288185;19;20028;-50
2023/08/02 16:41:58;;;;;;;0.45;0.30;;;;;;;20.12;100.00;96320.59;15284831;19;20029;-55
2023/08/02 16:47:23;;;;;;;0.10;0.10;;;;;;;20.00;100.00;96356.41;15286242;19;20017;-52
2023/08/02 16:52:50;;;;;;;0.20;0.20;;;;;;;19.84;100.00;96372.78;15291135;19;20025;-57
2023/08/02 16:58:15;;;;;;;1.75;0.20;;;;;;;19.71;100.00;96363.19;15292037;19;20014;-55
2023/08/02 17:03:39;;;;;;;0.50;0.20;;;;;;;19.62;100.00;96348.41;15283723;19;20050;-57
2023/08/02 17:09:06;;;;;;;0.22;0.20;;;;;;;19.48;100.00;96345.41;15296523;19;20810;-56
2023/08/02 17:14:31;;;;;;;0.60;0.30;;;;;;;19.40;100.00;96340.47;15284113;19;20031;-54
2023/08/02 17:19:56;;;;;;;0.38;0.28;;;;;;;19.25;100.00;96404.00;15287187;19;20015;-54
2023/08/02 17:25:23;;;;;;;0.77;0.40;;;;;;;19.14;100.00;96425.00;15283314;19;20024;-54
2023/08/02 17:30:48;;;;;;;0.20;0.20;;;;;;;19.01;100.00;96431.75;15288671;19;20015;-56
2023/08/02 17:36:13;;;;;;;0.35;0.30;;;;;;;18.87;100.00;96493.31;15282408;19;20010;-55
2023/08/02 17:41:40;;;;;;;0.45;0.45;;;;;;;18.76;100.00;96493.22;15275987;19;20032;-53
2023/08/02 17:47:05;;;;;;;0.57;0.50;;;;;;;18.67;100.00;96497.50;15287052;19;20037;-54
2023/08/02 17:52:30;;;;;;;1.48;0.40;;;;;;;18.52;100.00;96476.41;15282170;19;20025;-55
2023/08/02 17:57:57;;;;;;;0.98;0.40;;;;;;;18.38;100.00;96418.78;15301094;19;20026;-53
2023/08/02 18:03:22;;;;;;;0.75;0.38;;;;;;;18.24;100.00;96384.88;15292222;19;20475;-50
2023/08/02 18:08:48;;;;;;;0.57;0.50;;;;;;;18.08;100.00;96371.13;15305513;19;20010;-56
2023/08/02 18:14:16;;;;;;;0.30;0.28;;;;;;;18.05;100.00;96347.09;15292898;19;20489;-54
2023/08/02 18:19:41;;;;;;;1.75;0.43;;;;;;;18.14;100.00;96288.34;15302879;19;20017;-54
2023/08/02 18:25:06;;;;;;;0.50;0.50;;;;;;;18.06;100.00;96267.03;15292746;19;20024;-55
2023/08/02 18:30:34;;;;;;;1.02;0.50;;;;;;;17.82;100.00;96274.72;15297914;19;20018;-55
2023/08/02 18:36:10;;;;;;;0.40;0.40;;;;;;;17.49;100.00;96265.75;15293358;19;20086;-56
2023/08/02 18:41:34;;;;;;;0.60;0.40;;;;;;;17.28;100.00;96275.63;15292183;19;20018;-53
2023/08/02 18:47:01;;;;;;;0.90;0.50;;;;;;;17.07;100.00;96302.63;15297251;19;20020;-56
2023/08/02 18:52:26;;;;;;;0.40;0.40;;;;;;;16.92;100.00;96325.81;14786057;19;10001907;-56
2023/08/02 18:57:52;;;;;;;1.92;0.50;;;;;;;16.78;100.00;96343.59;15294347;19;20019;-55
2023/08/02 19:03:13;;;;;;;0.45;0.45;;;;;;;16.72;100.00;96352.75;15290212;19;20019;-54
2023/08/02 19:08:42;;;;;;;1.00;0.43;;;;;;;16.67;100.00;96374.44;15299168;19;20021;-54
2023/08/02 19:14:11;;;;;;;1.20;0.50;;;;;;;16.64;100.00;96413.81;15290309;19;20022;-56
2023/08/02 19:19:41;;;;;;;0.88;0.43;;;;;;;16.51;100.00;96474.78;15299693;19;20033;-55
2023/08/02 19:25:09;;;;;;;1.08;0.50;;;;;;;16.38;100.00;96502.28;15289311;19;20018;-55
2023/08/02 19:30:33;;;;;;;2.17;0.52;;;;;;;16.35;100.00;96500.06;15291552;19;20466;-50
2023/08/02 19:36:00;;;;;;;0.80;0.40;;;;;;;16.30;100.00;96517.91;15290194;19;20070;-54
2023/08/02 19:41:32;;;;;;;3.95;0.60;;;;;;;16.31;100.00;96505.97;15285647;19;20021;-55
2023/08/02 19:46:57;;;;;;;0.85;0.50;;;;;;;16.31;100.00;96495.13;15295558;19;20030;-57
2023/08/02 19:52:24;;;;;;;1.42;0.32;;;;;;;16.29;100.00;96483.66;15297517;19;20113;-57
2023/08/02 19:57:51;;;;;;;1.10;0.50;;;;;;;16.25;100.00;96487.13;15296877;19;20022;-52
2023/08/02 20:03:18;;;;;;;2.42;0.50;;;;;;;16.31;100.00;96503.25;15289858;19;20024;-54
2023/08/02 20:08:49;;;;;;;0.77;0.30;;;;;;;16.39;100.00;96493.06;15297505;19;20022;-50
2023/08/02 20:14:14;;;;;;;0.60;0.40;;;;;;;16.52;100.00;96508.22;15286509;19;20026;-51
2023/08/02 20:19:39;;;;;;;0.55;0.40;;;;;;;16.60;100.00;96496.94;15295616;19;20019;-52
2023/08/02 20:25:06;;;;;;;0.40;0.30;;;;;;;16.63;100.00;96510.88;15284689;19;20403;-50
2023/08/02 20:30:31;;;;;;;0.75;0.50;;;;;;;16.67;100.00;96518.50;15292815;19;20015;-51
2023/08/02 20:35:55;;;;;;;0.40;0.30;;;;;;;16.72;100.00;96534.94;15286929;19;20464;-52
2023/08/02 20:41:24;;;;;;;0.40;0.40;;;;;;;16.71;100.00;96541.44;15262328;19;20024;-50
2023/08/02 20:46:49;;;;;;;0.60;0.47;;;;;;;16.72;100.00;96545.78;15287127;19;20503;-57
2023/08/02 20:52:15;;;;;;;1.02;0.40;;;;;;;16.74;100.00;96536.31;15287638;19;20132;-56
2023/08/02 20:57:55;;;;;;;0.40;0.40;;;;;;;16.75;100.00;96550.75;15292562;19;20078;-53
2023/08/02 21:03:20;;;;;;;0.47;0.47;;;;;;;16.76;100.00;96539.63;15287402;19;20023;-51
2023/08/02 21:08:45;;;;;;;2.13;0.70;;;;;;;16.76;100.00;96546.94;15289632;19;20025;-56
2023/08/02 21:14:12;;;;;;;0.90;0.57;;;;;;;16.72;100.00;96556.69;15283433;19;20045;-56
2023/08/02 21:19:42;;;;;;;0.80;0.60;;;;;;;16.72;100.00;96551.25;15290719;19;20467;-53
2023/08/02 21:25:08;;;;;;;1.08;0.70;;;;;;;16.71;100.00;96574.06;15281877;19;20014;-56
2023/08/02 21:30:35;;;;;;;1.63;0.70;;;;;;;16.70;100.00;96575.13;15283911;19;20011;-54
2023/08/02 21:36:01;;;;;;;2.20;0.60;;;;;;;16.74;100.00;96565.41;15289539;19;20029;-52
2023/08/02 21:41:25;;;;;;;1.25;0.60;;;;;;;16.73;100.00;96574.63;15289557;19;20025;-54
2023/08/02 21:46:53;;;;;;;2.30;0.70;;;;;;;16.72;100.00;96573.78;15287064;19;20077;-54
2023/08/02 21:52:20;;;;;;;1.60;0.80;;;;;;;16.67;100.00;96587.31;15283154;19;20022;-55
2023/08/02 21:57:45;;;;;;;1.48;0.70;;;;;;;16.64;100.00;96588.63;15289946;19;20022;-54
2023/08/02 22:03:13;;;;;;;1.23;0.73;;;;;;;16.62;100.00;96596.22;15284801;19;20026;-55
2023/08/02 22:08:40;;;;;;;1.67;0.80;;;;;;;16.60;100.00;96603.78;15288724;19;20493;-57
2023/08/02 22:14:05;;;;;;;1.60;0.70;;;;;;;16.60;100.00;96608.38;15281515;19;20082;-55
2023/08/02 22:19:32;;;;;;;2.15;0.88;;;;;;;16.58;100.00;96603.19;15288566;19;20013;-54
2023/08/02 22:24:57;;;;;;;2.25;1.00;;;;;;;16.62;100.00;96590.78;15280244;19;20035;-56
2023/08/02 22:30:22;;;;;;;1.35;0.80;;;;;;;16.63;100.00;96592.44;15280480;19;20029;-55
2023/08/02 22:35:49;;;;;;;2.63;0.80;;;;;;;16.72;100.00;96594.75;15286387;19;20074;-56
2023/08/02 22:41:14;;;;;;;4.43;1.10;;;;;;;16.81;100.00;96587.00;15278096;19;20081;-56
2023/08/02 22:46:39;;;;;;;2.03;0.73;;;;;;;16.90;100.00;96591.78;15299185;19;20029;-54
2023/08/02 22:52:10;;;;;;;3.20;1.10;;;;;;;16.86;100.00;96595.22;15295705;19;20022;-57
2023/08/02 22:57:30;;;;;;;3.17;1.10;;;;;;;16.81;100.00;96587.81;15301106;19;20745;-55
2023/08/02 23:02:54;;;;;;;1.80;0.77;;;;;;;16.77;100.00;96581.22;15295537;19;20025;-55
2023/08/02 23:08:21;;;;;;;3.33;1.00;;;;;;;16.76;100.00;96596.72;15302011;19;20035;-54
2023/08/02 23:13:52;;;;;;;2.53;1.02;;;;;;;16.75;100.00;96588.81;15287116;19;20217;-54
2023/08/02 23:19:25;;;;;;;4.18;1.20;;;;;;;16.76;100.00;96602.16;15302684;19;20022;-55
2023/08/02 23:24:52;;;;;;;4.25;1.20;;;;;;;16.80;100.00;96607.91;15289691;19;20468;-57
2023/08/02 23:30:20;;;;;;;4.68;1.20;;;;;;;16.94;100.00;96589.41;15296163;19;20026;-55
2023/08/02 23:35:45;;;;;;;3.60;1.10;;;;;;;17.00;100.00;96588.44;15297112;19;20025;-55
2023/08/02 23:41:12;;;;;;;4.45;1.20;;;;;;;17.05;100.00;96588.50;15291224;19;20810;-54
2023/08/02 23:46:38;;;;;;;3.22;1.10;;;;;;;17.08;100.00;96614.41;15291393;19;20022;-56
2023/08/02 23:52:02;;;;;;;4.03;1.02;;;;;;;17.15;100.00;96612.31;15290027;19;20025;-54
2023/08/02 23:57:29;;;;;;;4.18;1.20;;;;;;;17.09;100.00;96616.03;15296974;19;20025;-56
